createdAt,value
2018-12-17T00:00:45.253Z,35.10
2018-12-17T00:05:52.349Z,36.10
2018-12-17T00:10:58.859Z,34.30
2018-12-17T00:16:03.848Z,33.43
2018-12-17T00:21:08.720Z,35.07
2018-12-17T00:26:13.735Z,33.60
2018-12-17T00:31:18.516Z,36.60
2018-12-17T00:36:23.544Z,35.97
2018-12-17T00:41:29.603Z,33.80
2018-12-17T00:46:34.370Z,36.20
2018-12-17T00:51:39.195Z,30.50
2018-12-17T00:56:44.091Z,31.13
2018-12-17T01:01:49.755Z,32.57
2018-12-17T01:06:54.475Z,32.07
2018-12-17T01:11:59.530Z,29.23
2018-12-17T01:17:04.088Z,34.93
2018-12-17T01:22:08.704Z,29.03
2018-12-17T01:27:13.759Z,30.57
2018-12-17T01:32:18.707Z,32.63
2018-12-17T01:37:23.745Z,27.47
2018-12-17T01:42:28.684Z,29.27
2018-12-17T01:47:33.605Z,29.27
2018-12-17T01:52:38.473Z,28.20
2018-12-17T01:57:43.360Z,30.87
2018-12-17T02:02:48.374Z,29.83
2018-12-17T02:07:53.705Z,31.10
2018-12-17T02:12:58.578Z,28.10
2018-12-17T02:18:03.508Z,29.13
2018-12-17T02:23:08.366Z,29.00
2018-12-17T02:28:13.238Z,31.70
2018-12-17T02:33:18.267Z,29.97
2018-12-17T02:38:23.239Z,31.00
2018-12-17T02:43:28.166Z,28.33
2018-12-17T02:48:33.120Z,31.80
2018-12-17T02:53:38.073Z,27.93
2018-12-17T02:58:44.115Z,29.53
2018-12-17T03:03:49.388Z,30.73
2018-12-17T03:08:54.363Z,35.57
2018-12-17T03:13:59.263Z,27.93
2018-12-17T03:19:04.122Z,24.77
2018-12-17T03:24:09.017Z,26.47
2018-12-17T03:29:14.009Z,29.17
2018-12-17T03:34:18.868Z,22.20
2018-12-17T03:39:23.837Z,25.87
2018-12-17T03:44:28.669Z,21.83
2018-12-17T03:49:33.505Z,24.97
2018-12-17T03:54:38.467Z,21.43
2018-12-17T03:59:43.411Z,22.13
2018-12-17T04:04:48.708Z,21.53
2018-12-17T04:09:53.757Z,18.30
2018-12-17T04:14:58.649Z,17.63
2018-12-17T04:20:03.425Z,19.37
2018-12-17T04:25:08.347Z,14.60
2018-12-17T04:30:13.288Z,15.97
2018-12-17T04:35:18.153Z,16.03
2018-12-17T04:40:23.013Z,26.60
2018-12-17T04:45:28.032Z,31.13
2018-12-17T04:50:33.055Z,41.33
2018-12-17T04:55:38.048Z,42.67
2018-12-17T05:00:42.993Z,30.17
2018-12-17T05:05:47.939Z,33.73
2018-12-17T05:10:52.879Z,28.40
2018-12-17T05:15:57.796Z,22.67
2018-12-17T05:21:02.664Z,20.77
2018-12-17T05:26:07.416Z,21.20
2018-12-17T05:31:12.458Z,25.83
2018-12-17T05:36:17.416Z,17.63
2018-12-17T05:41:22.182Z,18.60
2018-12-17T05:46:27.075Z,16.37
2018-12-17T05:51:32.070Z,17.40
2018-12-17T05:56:36.926Z,19.17
2018-12-17T06:01:41.820Z,19.33
2018-12-17T06:06:46.672Z,34.87
2018-12-17T06:11:51.572Z,41.03
2018-12-17T06:16:57.329Z,50.33
2018-12-17T06:22:02.361Z,46.87
2018-12-17T06:27:07.298Z,51.20
2018-12-17T06:32:12.230Z,53.80
2018-12-17T06:37:17.091Z,47.30
2018-12-17T06:42:21.960Z,28.57
2018-12-17T06:47:26.877Z,65.97
2018-12-17T06:52:31.768Z,167.17
2018-12-17T06:57:37.719Z,57.00
2018-12-17T07:02:42.568Z,114.33
2018-12-17T07:07:47.533Z,23.67
2018-12-17T07:12:52.442Z,20.63
2018-12-17T07:17:57.224Z,22.53
2018-12-17T07:23:02.365Z,17.90
2018-12-17T07:28:07.283Z,19.77
2018-12-17T07:33:12.067Z,16.17
2018-12-17T07:38:16.868Z,18.37
2018-12-17T07:43:21.619Z,20.07
2018-12-17T07:48:26.488Z,16.13
2018-12-17T07:53:31.404Z,17.80
2018-12-17T07:58:36.052Z,21.87
2018-12-17T08:03:41.012Z,26.73
2018-12-17T08:08:45.856Z,21.30
2018-12-17T08:13:50.713Z,18.80
2018-12-17T08:18:55.651Z,20.10
2018-12-17T08:24:00.605Z,18.10
2018-12-17T08:29:05.540Z,17.97
2018-12-17T08:34:10.401Z,18.93
2018-12-17T08:39:15.355Z,22.03
2018-12-17T08:44:20.385Z,19.30
2018-12-17T08:49:25.157Z,18.87
2018-12-17T08:54:30.052Z,18.93
2018-12-17T08:59:34.910Z,18.53
2018-12-17T09:04:39.662Z,20.53
2018-12-17T09:09:44.615Z,19.13
2018-12-17T09:14:49.553Z,22.87
2018-12-17T09:19:54.382Z,21.60
2018-12-17T09:24:59.283Z,22.87
2018-12-17T09:30:04.823Z,18.70
2018-12-17T09:35:09.897Z,24.27
2018-12-17T09:40:14.825Z,20.80
2018-12-17T09:45:19.652Z,25.57
2018-12-17T09:50:24.624Z,34.40
2018-12-17T09:55:29.456Z,31.43
2018-12-17T10:00:34.303Z,21.60
2018-12-17T10:05:39.257Z,49.33
2018-12-17T10:10:44.099Z,34.03
2018-12-17T10:15:48.936Z,54.83
2018-12-17T10:20:53.816Z,32.03
2018-12-17T10:25:58.632Z,16.60
2018-12-17T10:31:03.571Z,19.93
2018-12-17T10:36:08.467Z,61.97
2018-12-17T10:41:13.290Z,88.50
2018-12-17T10:46:20.271Z,24.63
2018-12-17T10:51:25.109Z,21.40
2018-12-17T10:56:30.041Z,46.17
2018-12-17T11:01:39.968Z,14.63
2018-12-17T11:06:45.194Z,14.03
2018-12-17T11:11:50.129Z,12.77
2018-12-17T11:16:55.087Z,12.10
2018-12-17T11:21:59.939Z,11.47
2018-12-17T11:27:04.885Z,13.03
2018-12-17T11:32:11.706Z,10.83
2018-12-17T11:37:16.696Z,14.00
2018-12-17T11:42:21.648Z,16.97
2018-12-17T11:47:26.500Z,9.23
2018-12-17T11:52:31.455Z,13.47
2018-12-17T11:57:50.093Z,9.03
2018-12-17T12:02:59.218Z,6.83
2018-12-17T12:08:03.927Z,6.83
2018-12-17T12:13:08.749Z,9.40
2018-12-17T12:18:13.656Z,9.43
2018-12-17T12:23:18.522Z,9.20
2018-12-17T12:28:23.289Z,9.13
2018-12-17T12:33:28.329Z,8.23
2018-12-17T12:38:33.267Z,10.13
2018-12-17T12:43:38.212Z,8.03
2018-12-17T12:48:43.084Z,12.03
2018-12-17T12:53:47.943Z,8.43
2018-12-17T12:58:52.986Z,7.90
2018-12-17T13:03:57.840Z,11.23
2018-12-17T13:09:03.124Z,10.30
2018-12-17T13:14:08.144Z,8.77
2018-12-17T13:19:13.111Z,10.13
2018-12-17T13:24:18.228Z,9.23
2018-12-17T13:29:22.952Z,9.90
2018-12-17T13:34:27.716Z,7.10
2018-12-17T13:39:32.666Z,8.23
2018-12-17T13:44:37.500Z,8.10
2018-12-17T13:49:42.437Z,8.13
2018-12-17T13:54:47.545Z,12.60
2018-12-17T13:59:52.449Z,8.40
2018-12-17T14:04:57.314Z,8.77
2018-12-17T14:10:07.264Z,8.83
2018-12-17T14:15:12.108Z,7.30
2018-12-17T14:20:22.160Z,7.00
2018-12-17T14:25:27.040Z,10.20
2018-12-17T14:30:31.861Z,10.47
2018-12-17T14:35:36.632Z,9.93
2018-12-17T14:40:41.572Z,11.13
2018-12-17T14:45:46.393Z,9.80
2018-12-17T14:50:51.160Z,10.83
2018-12-17T14:55:56.211Z,20.97
2018-12-17T15:01:01.079Z,11.50
2018-12-17T15:06:05.884Z,11.97
2018-12-17T15:11:10.753Z,16.27
2018-12-17T15:16:15.766Z,15.67
2018-12-17T15:21:20.651Z,23.57
2018-12-17T15:26:25.653Z,26.50
2018-12-17T15:31:30.639Z,26.77
2018-12-17T15:36:35.495Z,21.33
2018-12-17T15:41:40.328Z,19.40
2018-12-17T15:46:45.251Z,22.20
2018-12-17T15:51:50.215Z,18.90
2018-12-17T15:56:54.954Z,48.73
2018-12-17T16:01:59.938Z,49.20
2018-12-17T16:07:04.874Z,71.00
2018-12-17T16:12:09.819Z,45.80
2018-12-17T16:17:14.861Z,27.90
2018-12-17T16:22:19.734Z,22.13
2018-12-17T16:27:24.879Z,14.83
2018-12-17T16:32:29.839Z,16.53
2018-12-17T16:37:34.731Z,20.10
2018-12-17T16:42:39.605Z,21.77
2018-12-17T16:47:44.575Z,14.90
2018-12-17T16:52:49.595Z,14.63
2018-12-17T16:57:54.579Z,16.00
2018-12-17T17:02:59.414Z,13.70
2018-12-17T17:08:04.467Z,14.47
2018-12-17T17:13:09.335Z,13.63
2018-12-17T17:18:14.232Z,17.03
2018-12-17T17:23:19.116Z,16.13
2018-12-17T17:28:24.450Z,12.80
2018-12-17T17:33:29.281Z,11.40
2018-12-17T17:38:34.240Z,12.97
2018-12-17T17:43:39.087Z,13.37
2018-12-17T17:48:44.136Z,13.20
2018-12-17T17:53:48.988Z,14.07
2018-12-17T17:58:54.145Z,16.57
2018-12-17T18:03:59.184Z,14.70
2018-12-17T18:09:06.075Z,23.23
2018-12-17T18:14:12.295Z,16.17
2018-12-17T18:19:17.207Z,14.97
2018-12-17T18:24:22.379Z,16.40
2018-12-17T18:29:27.409Z,18.67
2018-12-17T18:34:32.785Z,17.47
2018-12-17T18:39:37.848Z,15.73
2018-12-17T18:44:42.671Z,15.90
2018-12-17T18:49:47.608Z,12.60
2018-12-17T18:54:52.465Z,14.97
2018-12-17T18:59:58.438Z,16.17
2018-12-17T19:05:03.568Z,11.73
2018-12-17T19:10:08.604Z,16.87
2018-12-17T19:15:13.577Z,11.87
2018-12-17T19:20:18.332Z,10.93
2018-12-17T19:25:23.254Z,13.33
2018-12-17T19:30:28.119Z,12.23
2018-12-17T19:35:33.094Z,13.50
2018-12-17T19:40:38.022Z,19.77
2018-12-17T19:45:43.050Z,18.27
2018-12-17T19:50:48.124Z,15.27
2018-12-17T19:55:53.040Z,19.30
2018-12-17T20:00:57.873Z,20.93
2018-12-17T20:06:02.978Z,21.93
2018-12-17T20:11:08.021Z,16.40
2018-12-17T20:16:13.145Z,15.87
2018-12-17T20:21:18.091Z,17.40
2018-12-17T20:26:23.036Z,13.67
2018-12-17T20:31:28.010Z,17.00
2018-12-17T20:36:33.009Z,17.53
2018-12-17T20:41:37.903Z,19.20
2018-12-17T20:46:42.836Z,16.97
2018-12-17T20:51:47.777Z,15.83
2018-12-17T20:56:52.644Z,18.37
2018-12-17T21:01:57.714Z,18.57
2018-12-17T21:07:02.740Z,17.30
2018-12-17T21:12:07.681Z,19.67
2018-12-17T21:17:12.718Z,18.90
2018-12-17T21:22:17.556Z,21.53
2018-12-17T21:27:22.405Z,20.30
2018-12-17T21:32:27.468Z,23.10
2018-12-17T21:37:32.286Z,17.17
2018-12-17T21:42:37.962Z,24.27
2018-12-17T21:47:42.944Z,16.77
2018-12-17T21:52:47.768Z,17.67
2018-12-17T21:57:52.722Z,17.20
2018-12-17T22:02:57.644Z,16.63
2018-12-17T22:08:02.399Z,20.13
2018-12-17T22:13:08.270Z,20.57
2018-12-17T22:18:13.134Z,19.37
2018-12-17T22:23:17.882Z,29.87
2018-12-17T22:28:22.920Z,24.00
2018-12-17T22:33:27.850Z,22.67
2018-12-17T22:38:32.816Z,21.20
2018-12-17T22:43:37.679Z,18.33
2018-12-17T22:48:42.511Z,29.73
2018-12-17T22:53:47.439Z,24.03
2018-12-17T22:58:52.197Z,20.70
2018-12-17T23:03:57.133Z,21.83
2018-12-17T23:09:07.282Z,17.83
2018-12-17T23:14:25.337Z,40.30
2018-12-17T23:19:28.951Z,21.03
2018-12-17T23:24:36.631Z,20.70
2018-12-17T23:29:41.658Z,20.07
2018-12-17T23:34:46.581Z,18.73
2018-12-17T23:39:51.690Z,15.77
2018-12-17T23:44:57.103Z,19.40
2018-12-17T23:50:02.053Z,20.97
2018-12-17T23:55:06.976Z,25.60
